createdAt,value
2023-02-23T00:01:52.682Z,41.72
2023-02-23T00:04:19.196Z,42.00
2023-02-23T00:06:45.819Z,41.45
2023-02-23T00:09:23.178Z,42.67
2023-02-23T00:11:57.330Z,41.40
2023-02-23T00:14:28.741Z,41.65
2023-02-23T00:16:56.576Z,41.15
2023-02-23T00:19:24.801Z,42.80
2023-02-23T00:21:52.241Z,41.25
2023-02-23T00:24:19.810Z,41.97
2023-02-23T00:26:47.874Z,41.90
2023-02-23T00:29:17.250Z,44.10
2023-02-23T00:31:44.887Z,45.22
2023-02-23T00:34:13.016Z,44.08
2023-02-23T00:36:39.854Z,42.65
2023-02-23T00:39:24.857Z,44.35
2023-02-23T00:41:55.227Z,43.13
2023-02-23T00:44:23.537Z,42.38
2023-02-23T00:46:51.780Z,44.10
2023-02-23T00:49:20.433Z,43.77
2023-02-23T00:51:47.995Z,42.75
2023-02-23T00:54:16.207Z,44.17
2023-02-23T00:56:42.992Z,45.15
2023-02-23T00:59:10.197Z,43.25
2023-02-23T01:01:38.409Z,42.53
2023-02-23T01:04:05.291Z,41.67
2023-02-23T01:06:32.320Z,43.00
2023-02-23T01:08:58.909Z,43.33
2023-02-23T01:11:30.901Z,43.38
2023-02-23T01:13:59.369Z,44.63
2023-02-23T01:16:29.426Z,43.45
2023-02-23T01:18:58.120Z,42.88
2023-02-23T01:21:25.848Z,44.15
2023-02-23T01:23:53.323Z,43.72
2023-02-23T01:26:26.081Z,43.80
2023-02-23T01:28:56.893Z,44.63
2023-02-23T01:31:25.492Z,45.58
2023-02-23T01:33:57.003Z,46.13
2023-02-23T01:36:25.422Z,47.15
2023-02-23T01:38:56.315Z,46.88
2023-02-23T01:41:23.964Z,47.33
2023-02-23T01:44:13.308Z,47.78
2023-02-23T01:49:15.295Z,46.95
2023-02-23T01:51:58.693Z,47.55
2023-02-23T01:54:31.001Z,50.15
2023-02-23T01:57:01.758Z,48.42
2023-02-23T01:59:34.631Z,47.15
2023-02-23T02:02:04.933Z,47.20
2023-02-23T02:04:43.994Z,47.78
2023-02-23T02:12:26.429Z,48.30
2023-02-23T02:15:19.920Z,48.53
2023-02-23T02:18:38.052Z,48.05
2023-02-23T02:21:23.388Z,47.70
2023-02-23T02:24:02.282Z,48.90
2023-02-23T02:27:19.137Z,50.25
2023-02-23T02:30:32.081Z,48.63
2023-02-23T02:33:40.354Z,50.55
2023-02-23T02:36:25.107Z,51.22
2023-02-23T02:38:56.205Z,50.00
2023-02-23T02:41:37.033Z,50.25
2023-02-23T02:44:18.205Z,50.97
2023-02-23T02:46:49.664Z,50.55
2023-02-23T02:49:28.971Z,51.10
2023-02-23T02:52:05.430Z,50.25
2023-02-23T02:54:39.321Z,51.83
2023-02-23T02:57:06.942Z,51.75
2023-02-23T03:00:02.520Z,54.55
2023-02-23T03:02:50.190Z,55.05
2023-02-23T03:05:38.453Z,56.05
2023-02-23T03:08:47.092Z,56.97
2023-02-23T03:11:34.401Z,54.38
2023-02-23T03:14:50.484Z,55.33
2023-02-23T03:18:05.162Z,53.42
2023-02-23T03:20:53.149Z,55.08
2023-02-23T03:23:39.629Z,55.78
2023-02-23T03:26:40.134Z,56.35
2023-02-23T03:29:37.654Z,57.25
2023-02-23T03:32:32.428Z,60.22
2023-02-23T03:35:27.729Z,60.05
2023-02-23T03:38:24.071Z,56.50
2023-02-23T03:41:10.252Z,57.45
2023-02-23T03:44:03.581Z,55.78
2023-02-23T03:46:50.305Z,56.97
2023-02-23T03:49:39.032Z,57.20
2023-02-23T03:52:36.761Z,60.08
2023-02-23T03:55:28.425Z,56.83
2023-02-23T03:58:20.343Z,57.60
2023-02-23T04:01:08.797Z,58.03
2023-02-23T04:03:58.093Z,59.30
2023-02-23T04:09:31.044Z,58.17
2023-02-23T04:12:39.244Z,58.17
2023-02-23T04:15:20.201Z,59.83
2023-02-23T04:17:48.237Z,58.45
2023-02-23T04:20:14.951Z,57.28
2023-02-23T04:22:41.484Z,56.60
2023-02-23T04:25:08.923Z,57.50
2023-02-23T04:27:36.323Z,58.20
2023-02-23T04:30:03.695Z,58.45
2023-02-23T04:32:30.845Z,59.58
2023-02-23T04:34:57.418Z,58.20
2023-02-23T04:37:23.900Z,56.72
2023-02-23T04:39:50.448Z,58.67
2023-02-23T04:42:17.630Z,58.45
2023-02-23T04:44:44.550Z,59.17
2023-02-23T04:47:11.806Z,59.13
2023-02-23T04:49:38.482Z,59.17
2023-02-23T04:52:05.275Z,60.88
2023-02-23T04:54:31.789Z,58.60
2023-02-23T04:56:58.428Z,59.28
2023-02-23T04:59:24.967Z,59.15
2023-02-23T05:01:51.635Z,59.28
2023-02-23T05:04:18.082Z,56.67
2023-02-23T05:06:44.547Z,57.58
2023-02-23T05:09:11.015Z,56.92
2023-02-23T05:11:38.094Z,55.42
2023-02-23T05:14:04.803Z,58.00
2023-02-23T05:16:31.364Z,58.35
2023-02-23T05:18:58.229Z,56.00
2023-02-23T05:21:24.957Z,56.35
2023-02-23T05:23:51.501Z,54.45
2023-02-23T05:26:18.748Z,52.83
2023-02-23T05:28:45.384Z,53.83
2023-02-23T05:31:12.279Z,53.67
2023-02-23T05:33:45.643Z,53.40
2023-02-23T05:36:15.176Z,54.53
2023-02-23T05:41:10.225Z,54.25
2023-02-23T05:43:36.864Z,54.17
2023-02-23T05:46:30.072Z,54.20
2023-02-23T05:48:59.724Z,54.65
2023-02-23T05:51:27.612Z,52.85
2023-02-23T05:53:54.370Z,54.78
2023-02-23T05:56:21.344Z,53.42
2023-02-23T05:58:56.268Z,54.10
2023-02-23T06:01:22.983Z,53.08
2023-02-23T06:03:49.665Z,55.10
2023-02-23T06:06:17.500Z,56.47
2023-02-23T06:08:44.454Z,54.83
2023-02-23T06:11:11.592Z,56.00
2023-02-23T06:13:38.125Z,54.40
2023-02-23T06:16:05.142Z,55.22
2023-02-23T06:18:31.735Z,53.85
2023-02-23T06:21:03.833Z,54.33
2023-02-23T06:23:31.550Z,53.28
2023-02-23T06:25:59.719Z,51.60
2023-02-23T06:28:27.266Z,53.00
2023-02-23T06:30:54.874Z,51.40
2023-02-23T06:33:22.630Z,53.85
2023-02-23T06:35:49.359Z,51.25
2023-02-23T06:38:16.134Z,50.30
2023-02-23T06:40:43.196Z,48.92
2023-02-23T06:43:09.850Z,49.70
2023-02-23T06:45:36.552Z,49.92
2023-02-23T06:48:03.076Z,49.58
2023-02-23T06:50:29.589Z,51.17
2023-02-23T06:52:57.517Z,51.05
2023-02-23T06:55:24.308Z,51.90
2023-02-23T06:57:51.831Z,47.72
2023-02-23T07:00:18.819Z,49.03
2023-02-23T07:02:45.767Z,48.92
2023-02-23T07:05:12.323Z,48.00
2023-02-23T07:07:38.852Z,46.22
2023-02-23T07:10:06.718Z,45.42
2023-02-23T07:12:33.323Z,46.80
2023-02-23T07:14:59.802Z,45.33
2023-02-23T07:17:26.277Z,47.92
2023-02-23T07:19:52.769Z,43.83
2023-02-23T07:22:19.372Z,45.00
2023-02-23T07:24:46.259Z,45.58
2023-02-23T07:27:12.765Z,45.30
2023-02-23T07:29:39.248Z,45.05
2023-02-23T07:32:06.103Z,43.53
2023-02-23T07:34:32.932Z,42.90
2023-02-23T07:36:59.489Z,45.10
2023-02-23T07:39:26.019Z,41.92
2023-02-23T07:41:52.510Z,44.10
2023-02-23T07:44:19.456Z,44.03
2023-02-23T07:46:46.428Z,43.63
2023-02-23T07:49:13.040Z,43.53
2023-02-23T07:51:40.068Z,45.13
2023-02-23T07:54:06.776Z,44.60
2023-02-23T07:56:33.567Z,44.65
2023-02-23T07:59:00.113Z,42.78
2023-02-23T08:01:26.634Z,42.22
2023-02-23T08:03:53.245Z,44.85
2023-02-23T08:06:20.213Z,43.78
2023-02-23T08:08:47.254Z,43.17
2023-02-23T08:11:13.834Z,42.10
2023-02-23T08:13:40.290Z,42.75
2023-02-23T08:16:07.272Z,43.55
2023-02-23T08:18:33.806Z,42.50
2023-02-23T08:21:01.683Z,42.58
2023-02-23T08:23:33.402Z,40.53
2023-02-23T08:26:01.296Z,42.22
2023-02-23T08:28:28.802Z,41.67
2023-02-23T08:30:55.420Z,44.05
2023-02-23T08:33:22.564Z,43.72
2023-02-23T08:35:49.097Z,41.60
2023-02-23T08:38:16.398Z,42.72
2023-02-23T08:40:43.274Z,41.47
2023-02-23T08:43:09.916Z,41.90
2023-02-23T08:45:38.658Z,43.28
2023-02-23T08:48:06.722Z,39.90
2023-02-23T08:50:33.184Z,41.20
2023-02-23T08:52:59.643Z,41.88
2023-02-23T08:55:26.530Z,42.38
2023-02-23T08:57:53.037Z,40.83
2023-02-23T09:00:20.069Z,41.78
2023-02-23T09:02:49.587Z,41.75
2023-02-23T09:07:45.027Z,40.78
2023-02-23T09:10:17.038Z,41.88
2023-02-23T09:12:43.568Z,40.75
2023-02-23T09:15:10.442Z,39.15
2023-02-23T09:17:37.709Z,39.50
2023-02-23T09:20:05.621Z,39.92
2023-02-23T09:22:32.471Z,37.45
2023-02-23T09:24:58.925Z,40.17
2023-02-23T09:27:25.471Z,39.65
2023-02-23T09:29:51.953Z,37.25
2023-02-23T09:32:18.577Z,36.30
2023-02-23T09:34:45.108Z,36.25
2023-02-23T09:37:11.587Z,35.25
2023-02-23T09:39:39.182Z,36.40
2023-02-23T09:42:14.989Z,33.30
2023-02-23T09:44:54.904Z,33.95
2023-02-23T09:47:33.612Z,32.70
2023-02-23T09:50:05.997Z,34.45
2023-02-23T09:52:40.928Z,36.78
2023-02-23T09:55:11.323Z,35.38
2023-02-23T09:57:40.238Z,36.65
2023-02-23T10:00:17.956Z,37.67
2023-02-23T10:03:16.880Z,37.97
2023-02-23T10:05:54.585Z,38.17
2023-02-23T10:08:51.854Z,42.40
2023-02-23T10:11:26.002Z,39.38
2023-02-23T10:14:07.321Z,39.22
2023-02-23T10:16:45.480Z,39.63
2023-02-23T10:19:29.267Z,36.30
2023-02-23T10:22:06.489Z,34.92
2023-02-23T10:24:56.785Z,35.78
2023-02-23T10:27:30.421Z,34.47
2023-02-23T10:30:00.598Z,33.15
2023-02-23T10:32:40.923Z,35.53
2023-02-23T10:35:13.457Z,33.50
2023-02-23T10:37:40.097Z,32.92
2023-02-23T10:40:08.166Z,34.33
2023-02-23T10:42:34.748Z,33.47
2023-02-23T10:45:01.252Z,33.28
2023-02-23T10:47:32.436Z,31.98
2023-02-23T10:49:59.261Z,32.78
2023-02-23T10:52:42.928Z,34.78
2023-02-23T10:55:30.936Z,34.38
2023-02-23T10:58:20.805Z,33.75
2023-02-23T11:00:56.473Z,33.38
2023-02-23T11:03:44.311Z,32.42
2023-02-23T11:06:34.063Z,31.80
2023-02-23T11:09:45.014Z,30.27
2023-02-23T11:12:28.508Z,28.27
2023-02-23T11:14:58.940Z,28.75
2023-02-23T11:17:38.721Z,29.30
2023-02-23T11:20:18.691Z,26.75
2023-02-23T11:22:45.859Z,27.27
2023-02-23T11:25:17.689Z,27.52
2023-02-23T11:27:51.741Z,28.65
2023-02-23T11:30:24.436Z,26.95
2023-02-23T11:33:02.457Z,27.83
2023-02-23T11:35:30.869Z,27.17
2023-02-23T11:37:57.638Z,28.58
2023-02-23T11:40:28.568Z,28.77
2023-02-23T11:43:09.809Z,31.77
2023-02-23T11:45:51.981Z,32.22
2023-02-23T11:48:32.969Z,34.47
2023-02-23T11:51:00.519Z,34.67
2023-02-23T11:53:34.951Z,36.05
2023-02-23T11:56:07.823Z,33.80
2023-02-23T11:58:39.333Z,32.63
2023-02-23T12:01:12.179Z,33.40
2023-02-23T12:03:44.739Z,33.53
2023-02-23T12:06:11.456Z,32.45
2023-02-23T12:08:46.422Z,31.83
2023-02-23T12:11:24.640Z,31.60
2023-02-23T12:14:00.826Z,31.92
2023-02-23T12:16:33.331Z,32.72
2023-02-23T12:19:06.619Z,35.75
2023-02-23T12:21:41.887Z,35.38
2023-02-23T12:24:08.438Z,33.58
2023-02-23T12:27:06.267Z,38.58
2023-02-23T12:29:58.773Z,37.80
2023-02-23T12:32:34.799Z,37.03
2023-02-23T12:35:23.052Z,38.75
2023-02-23T12:38:00.327Z,37.17
2023-02-23T12:40:30.251Z,36.55
2023-02-23T12:43:15.912Z,35.83
2023-02-23T12:45:52.692Z,34.67
2023-02-23T12:48:41.671Z,33.75
2023-02-23T12:51:43.313Z,33.22
2023-02-23T12:54:12.507Z,32.25
2023-02-23T12:57:04.290Z,34.83
2023-02-23T12:59:55.164Z,33.08
2023-02-23T13:02:34.065Z,34.22
2023-02-23T13:05:16.274Z,35.45
2023-02-23T13:08:07.993Z,34.63
2023-02-23T13:10:51.356Z,34.65
2023-02-23T13:13:38.260Z,34.47
2023-02-23T13:16:29.661Z,34.97
2023-02-23T13:19:11.644Z,32.10
2023-02-23T13:21:47.514Z,33.53
2023-02-23T13:24:27.259Z,30.75
2023-02-23T13:27:02.921Z,33.50
2023-02-23T13:29:39.126Z,32.53
2023-02-23T13:32:12.980Z,32.63
2023-02-23T13:34:44.689Z,32.58
2023-02-23T13:37:15.142Z,32.50
2023-02-23T13:40:08.774Z,33.47
2023-02-23T13:42:45.294Z,31.52
2023-02-23T13:45:39.004Z,33.45
2023-02-23T13:48:13.765Z,32.35
2023-02-23T13:50:56.627Z,31.23
2023-02-23T13:53:42.288Z,33.15
2023-02-23T13:56:17.677Z,32.33
2023-02-23T13:58:51.719Z,32.78
2023-02-23T14:01:23.548Z,30.40
2023-02-23T14:03:57.395Z,32.22
2023-02-23T14:06:27.847Z,31.27
2023-02-23T14:09:21.335Z,30.20
2023-02-23T14:11:53.818Z,27.85
2023-02-23T14:14:32.927Z,25.25
2023-02-23T14:17:09.806Z,25.10
2023-02-23T14:19:56.484Z,24.80
2023-02-23T14:22:23.026Z,24.13
2023-02-23T14:25:28.819Z,25.80
2023-02-23T14:28:00.633Z,24.13
2023-02-23T14:30:29.197Z,24.00
2023-02-23T14:33:13.128Z,20.57
2023-02-23T14:35:44.812Z,23.13
2023-02-23T14:38:24.768Z,21.77
2023-02-23T14:40:53.775Z,21.98
2023-02-23T14:43:35.514Z,20.42
2023-02-23T14:46:05.851Z,22.23
2023-02-23T14:48:36.475Z,21.00
2023-02-23T14:51:25.170Z,21.60
2023-02-23T14:53:53.446Z,21.75
2023-02-23T14:56:22.650Z,22.35
2023-02-23T14:58:52.566Z,20.90
2023-02-23T15:01:32.776Z,21.77
2023-02-23T15:04:12.580Z,22.85
2023-02-23T15:06:42.460Z,24.20
2023-02-23T15:09:19.979Z,21.58
2023-02-23T15:11:49.941Z,21.77
2023-02-23T15:14:27.390Z,22.55
2023-02-23T15:16:56.268Z,20.50
2023-02-23T15:19:34.401Z,22.80
2023-02-23T15:22:02.917Z,22.15
2023-02-23T15:24:41.408Z,21.50
2023-02-23T15:27:17.378Z,21.52
2023-02-23T15:29:43.817Z,21.88
2023-02-23T15:32:16.521Z,21.58
2023-02-23T15:34:43.166Z,21.38
2023-02-23T15:37:15.157Z,21.23
2023-02-23T15:39:53.101Z,20.02
2023-02-23T15:42:25.290Z,20.10
2023-02-23T15:45:11.683Z,19.08
2023-02-23T15:47:38.235Z,19.63
2023-02-23T15:50:14.270Z,20.50
2023-02-23T15:52:55.137Z,20.27
2023-02-23T15:55:28.122Z,20.60
2023-02-23T15:57:59.063Z,20.42
2023-02-23T16:00:33.010Z,19.27
2023-02-23T16:03:02.662Z,20.85
2023-02-23T16:05:41.818Z,19.98
2023-02-23T16:08:22.978Z,19.92
2023-02-23T16:10:57.435Z,20.05
2023-02-23T16:13:24.195Z,20.15
2023-02-23T16:15:54.022Z,20.75
2023-02-23T16:18:27.527Z,21.65
2023-02-23T16:20:58.908Z,19.70
2023-02-23T16:23:34.472Z,20.60
2023-02-23T16:26:30.813Z,22.33
2023-02-23T16:29:00.272Z,21.20
2023-02-23T16:34:21.263Z,22.52
2023-02-23T16:36:55.470Z,20.83
2023-02-23T16:39:25.351Z,22.02
2023-02-23T16:41:52.006Z,23.52
2023-02-23T16:44:21.682Z,23.33
2023-02-23T16:47:01.783Z,22.50
2023-02-23T16:49:32.487Z,22.05
2023-02-23T16:51:59.835Z,23.40
2023-02-23T16:54:26.529Z,22.92
2023-02-23T16:56:55.320Z,23.40
2023-02-23T16:59:23.902Z,22.55
2023-02-23T17:01:50.778Z,22.37
2023-02-23T17:04:19.259Z,24.25
2023-02-23T17:06:48.301Z,24.10
2023-02-23T17:09:14.711Z,23.27
2023-02-23T17:11:41.454Z,24.85
2023-02-23T17:14:07.910Z,22.70
2023-02-23T17:16:34.424Z,24.00
2023-02-23T17:19:01.836Z,22.17
2023-02-23T17:21:28.383Z,23.10
2023-02-23T17:24:02.460Z,21.52
2023-02-23T17:26:29.051Z,21.95
2023-02-23T17:28:55.566Z,22.02
2023-02-23T17:31:24.856Z,22.77
2023-02-23T17:33:53.686Z,20.83
2023-02-23T17:36:20.256Z,19.20
2023-02-23T17:38:46.965Z,19.05
2023-02-23T17:41:16.730Z,20.05
2023-02-23T17:43:43.543Z,19.40
2023-02-23T17:46:10.302Z,20.45
2023-02-23T17:48:36.870Z,20.23
2023-02-23T17:51:08.901Z,19.85
2023-02-23T17:53:36.052Z,19.35
2023-02-23T17:56:02.505Z,19.67
2023-02-23T17:58:30.089Z,18.58
2023-02-23T18:00:58.705Z,17.95
2023-02-23T18:03:31.770Z,18.20
2023-02-23T18:06:06.540Z,18.98
2023-02-23T18:08:33.650Z,17.83
2023-02-23T18:11:00.392Z,19.42
2023-02-23T18:13:29.069Z,17.33
2023-02-23T18:15:59.489Z,17.30
2023-02-23T18:18:26.245Z,17.83
2023-02-23T18:20:58.007Z,17.98
2023-02-23T18:23:28.607Z,17.65
2023-02-23T18:25:55.023Z,17.55
2023-02-23T18:28:21.507Z,18.42
2023-02-23T18:30:48.017Z,20.02
2023-02-23T18:33:14.778Z,16.95
2023-02-23T18:35:44.973Z,19.30
2023-02-23T18:38:14.018Z,19.52
2023-02-23T18:40:41.043Z,20.25
2023-02-23T18:43:08.692Z,20.40
2023-02-23T18:45:35.224Z,20.13
2023-02-23T18:48:01.845Z,19.13
2023-02-23T18:50:28.398Z,20.02
2023-02-23T18:52:56.433Z,19.48
2023-02-23T18:55:23.762Z,19.63
2023-02-23T18:57:52.544Z,19.25
2023-02-23T19:00:20.108Z,16.13
2023-02-23T19:02:52.139Z,20.13
2023-02-23T19:05:22.377Z,20.52
2023-02-23T19:07:49.149Z,20.45
2023-02-23T19:10:16.286Z,21.30
2023-02-23T19:12:43.444Z,21.00
2023-02-23T19:15:10.560Z,21.95
2023-02-23T19:17:37.058Z,20.73
2023-02-23T19:20:07.924Z,21.67
2023-02-23T19:22:34.925Z,20.90
2023-02-23T19:25:02.194Z,24.10
2023-02-23T19:27:29.698Z,23.58
2023-02-23T19:29:56.952Z,21.45
2023-02-23T19:32:23.955Z,22.73
2023-02-23T19:34:50.908Z,21.83
2023-02-23T19:37:17.903Z,23.08
2023-02-23T19:39:46.338Z,22.63
2023-02-23T19:42:18.088Z,22.52
2023-02-23T19:44:45.707Z,21.23
2023-02-23T19:47:12.372Z,21.40
2023-02-23T19:49:39.040Z,23.05
2023-02-23T19:52:05.783Z,21.13
2023-02-23T19:54:34.032Z,21.35
2023-02-23T19:57:00.951Z,23.90
2023-02-23T19:59:28.658Z,21.77
2023-02-23T20:01:55.460Z,23.75
2023-02-23T20:04:22.630Z,22.80
2023-02-23T20:06:49.323Z,20.95
2023-02-23T20:09:16.647Z,21.35
2023-02-23T20:11:43.430Z,21.25
2023-02-23T20:14:10.800Z,22.85
2023-02-23T20:16:37.516Z,21.40
2023-02-23T20:19:06.417Z,22.63
2023-02-23T20:21:33.742Z,20.30
2023-02-23T20:24:01.592Z,21.02
2023-02-23T20:26:39.267Z,20.60
2023-02-23T20:29:10.551Z,21.95
2023-02-23T20:31:41.570Z,21.13
2023-02-23T20:34:10.940Z,21.67
2023-02-23T20:39:04.791Z,19.10
2023-02-23T20:41:32.000Z,18.73
2023-02-23T20:44:00.846Z,20.08
2023-02-23T20:46:30.646Z,18.20
2023-02-23T20:48:59.151Z,19.42
2023-02-23T20:51:26.102Z,19.77
2023-02-23T20:53:52.856Z,18.77
2023-02-23T20:56:22.025Z,19.52
2023-02-23T20:58:48.724Z,20.23
2023-02-23T21:01:20.376Z,20.42
2023-02-23T21:03:47.438Z,20.83
2023-02-23T21:06:15.945Z,21.25
2023-02-23T21:08:42.637Z,20.58
2023-02-23T21:11:09.368Z,19.58
2023-02-23T21:13:36.395Z,20.05
2023-02-23T21:16:03.422Z,19.92
2023-02-23T21:18:30.942Z,19.80
2023-02-23T21:21:06.496Z,21.73
2023-02-23T21:23:33.222Z,19.88
2023-02-23T21:26:07.069Z,21.13
2023-02-23T21:28:34.186Z,20.73
2023-02-23T21:31:01.048Z,20.08
2023-02-23T21:33:27.959Z,18.23
2023-02-23T21:35:58.595Z,18.17
2023-02-23T21:38:26.315Z,19.05
2023-02-23T21:40:53.096Z,20.05
2023-02-23T21:43:19.792Z,18.95
2023-02-23T21:45:46.674Z,18.50
2023-02-23T21:48:13.813Z,18.42
2023-02-23T21:50:42.100Z,18.23
2023-02-23T21:53:09.610Z,19.90
2023-02-23T21:55:39.998Z,17.63
2023-02-23T21:58:07.132Z,19.63
2023-02-23T22:00:35.758Z,18.30
2023-02-23T22:03:03.096Z,17.63
2023-02-23T22:05:29.923Z,17.55
2023-02-23T22:07:56.579Z,17.02
2023-02-23T22:10:24.075Z,18.17
2023-02-23T22:12:55.683Z,16.88
2023-02-23T22:15:27.463Z,17.00
2023-02-23T22:17:55.585Z,16.33
2023-02-23T22:20:22.451Z,17.25
2023-02-23T22:22:50.335Z,16.00
2023-02-23T22:25:19.662Z,16.42
2023-02-23T22:27:46.360Z,16.75
2023-02-23T22:30:14.632Z,16.02
2023-02-23T22:32:42.551Z,15.10
2023-02-23T22:35:10.074Z,15.30
2023-02-23T22:37:36.937Z,14.30
2023-02-23T22:40:15.253Z,16.38
2023-02-23T22:42:47.889Z,15.40
2023-02-23T22:45:15.925Z,16.45
2023-02-23T22:47:42.677Z,14.52
2023-02-23T22:50:11.824Z,14.80
2023-02-23T22:52:38.663Z,14.45
2023-02-23T22:55:05.603Z,14.80
2023-02-23T22:57:32.274Z,13.75
2023-02-23T23:00:10.856Z,15.30
2023-02-23T23:02:37.846Z,14.57
2023-02-23T23:05:05.050Z,14.35
2023-02-23T23:07:32.391Z,14.02
2023-02-23T23:10:02.271Z,13.50
2023-02-23T23:12:28.902Z,14.68
2023-02-23T23:15:00.378Z,14.50
2023-02-23T23:17:28.934Z,14.13
2023-02-23T23:19:56.576Z,14.83
2023-02-23T23:22:25.425Z,14.80
2023-02-23T23:24:52.600Z,14.77
2023-02-23T23:27:20.235Z,14.10
2023-02-23T23:29:48.122Z,15.02
2023-02-23T23:32:17.235Z,13.60
2023-02-23T23:34:47.228Z,15.80
2023-02-23T23:37:15.927Z,15.40
2023-02-23T23:39:42.699Z,14.47
2023-02-23T23:42:09.299Z,14.00
2023-02-23T23:44:36.381Z,14.55
2023-02-23T23:47:05.716Z,14.23
2023-02-23T23:52:05.788Z,13.05
2023-02-23T23:54:39.074Z,15.05
2023-02-23T23:57:06.527Z,16.35
2023-02-23T23:59:34.829Z,15.15
